CPA903 VHHH-RPLL
Flight info
| Callsign | CPA903 |
|---|---|
| Flight time | N/A |
| Altitude | 41000 |
| Route | DALOL V642 NOMAN A461 AVMUP W16 TADEL TADEL7R |
| Aircraft | A359/H-SDE2E3GHIJ3J4J5LM1ORWXY/LB1D1 |
Departure
| Time | 2026-04-30 08:45 |
|---|---|
| Airport | Hong Kong International Airport (VHHH) |
Arrival
| Time | N/A |
|---|---|
| Airport | Ninoy Aquino International Airport (RPLL) |
| Time | Latitude | Longitude | Altitude | Speed | Heading |
|---|---|---|---|---|---|
| 2026-04-30 08:27 | 22.31075 | 113.92559 | 41 ft | 0 kts | 114° |
| 2026-04-30 08:37 | 22.31075 | 113.92558 | 41 ft | 2 kts | 114° |
| 2026-04-30 08:37 | 22.31086 | 113.92532 | 38 ft | 4 kts | 114° |
| 2026-04-30 08:37 | 22.31095 | 113.92509 | 39 ft | 3 kts | 115° |
| 2026-04-30 08:38 | 22.31106 | 113.92490 | 37 ft | 4 kts | 150° |
| 2026-04-30 08:38 | 22.31124 | 113.92484 | 37 ft | 4 kts | 191° |
| 2026-04-30 08:38 | 22.31150 | 113.92492 | 36 ft | 4 kts | 204° |
| 2026-04-30 08:38 | 22.31156 | 113.92495 | 40 ft | 0 kts | 205° |
| 2026-04-30 08:41 | 22.31144 | 113.92489 | 40 ft | 7 kts | 205° |
| 2026-04-30 08:41 | 22.31056 | 113.92445 | 41 ft | 20 kts | 205° |
| 2026-04-30 08:42 | 22.30923 | 113.92374 | 41 ft | 23 kts | 206° |
| 2026-04-30 08:42 | 22.30769 | 113.92342 | 42 ft | 19 kts | 153° |
| 2026-04-30 08:42 | 22.30766 | 113.92492 | 42 ft | 27 kts | 69° |
| 2026-04-30 08:42 | 22.30835 | 113.92706 | 42 ft | 32 kts | 71° |
| 2026-04-30 08:43 | 22.30908 | 113.92937 | 42 ft | 31 kts | 70° |
| 2026-04-30 08:43 | 22.30952 | 113.93074 | 42 ft | 15 kts | 72° |
| 2026-04-30 08:43 | 22.30930 | 113.93160 | 42 ft | 15 kts | 125° |
| 2026-04-30 08:43 | 22.30813 | 113.93239 | 41 ft | 25 kts | 162° |
| 2026-04-30 08:44 | 22.30714 | 113.93194 | 40 ft | 16 kts | 257° |
| 2026-04-30 08:44 | 22.30653 | 113.92997 | 41 ft | 54 kts | 251° |
| 2026-04-30 08:44 | 22.30443 | 113.92350 | 44 ft | 126 kts | 251° |
| 2026-04-30 08:44 | 22.30086 | 113.91250 | 157 ft | 175 kts | 253° |
| 2026-04-30 08:45 | 22.29694 | 113.90138 | 1400 ft | 139 kts | 250° |
| 2026-04-30 08:45 | 22.29338 | 113.89097 | 2045 ft | 159 kts | 253° |
| 2026-04-30 08:45 | 22.28964 | 113.87871 | 2388 ft | 185 kts | 254° |
| 2026-04-30 08:45 | 22.28480 | 113.86474 | 2709 ft | 214 kts | 245° |
| 2026-04-30 08:46 | 22.27662 | 113.85004 | 3142 ft | 238 kts | 237° |
| 2026-04-30 08:46 | 22.26703 | 113.83509 | 3919 ft | 244 kts | 237° |
| 2026-04-30 08:46 | 22.25654 | 113.82115 | 4893 ft | 242 kts | 224° |
| 2026-04-30 08:46 | 22.24161 | 113.81302 | 5885 ft | 245 kts | 193° |
| 2026-04-30 08:47 | 22.22439 | 113.81146 | 6778 ft | 251 kts | 185° |
| 2026-04-30 08:47 | 22.20671 | 113.81229 | 7607 ft | 259 kts | 173° |
| 2026-04-30 08:47 | 22.19003 | 113.81983 | 8485 ft | 270 kts | 146° |
| 2026-04-30 08:47 | 22.17623 | 113.83429 | 9391 ft | 277 kts | 135° |
| 2026-04-30 08:48 | 22.16400 | 113.85038 | 10209 ft | 285 kts | 127° |
| 2026-04-30 08:48 | 22.15493 | 113.86971 | 10989 ft | 292 kts | 114° |
| 2026-04-30 08:48 | 22.14734 | 113.89031 | 11783 ft | 297 kts | 113° |
| 2026-04-30 08:48 | 22.13984 | 113.91128 | 12564 ft | 303 kts | 111° |
| 2026-04-30 08:49 | 22.13525 | 113.93382 | 13239 ft | 316 kts | 98° |